sensor_id;sensor_type;location;lat;lon;timestamp;P1;durP1;ratioP1;P2;durP2;ratioP2
10246;SDS011;5168;47.854;7.944;2022-11-12T00:00:29;1.30;;;1.20;;
10246;SDS011;5168;47.854;7.944;2022-11-12T00:02:55;1.40;;;1.30;;
10246;SDS011;5168;47.854;7.944;2022-11-12T00:05:21;1.53;;;1.43;;
10246;SDS011;5168;47.854;7.944;2022-11-12T00:07:47;1.47;;;1.37;;
10246;SDS011;5168;47.854;7.944;2022-11-12T00:10:14;1.40;;;1.30;;
10246;SDS011;5168;47.854;7.944;2022-11-12T00:12:40;1.57;;;1.47;;
10246;SDS011;5168;47.854;7.944;2022-11-12T00:15:06;1.57;;;1.47;;
10246;SDS011;5168;47.854;7.944;2022-11-12T00:17:32;1.47;;;1.37;;
10246;SDS011;5168;47.854;7.944;2022-11-12T00:19:57;1.40;;;1.30;;
10246;SDS011;5168;47.854;7.944;2022-11-12T00:22:23;1.70;;;1.60;;
10246;SDS011;5168;47.854;7.944;2022-11-12T00:24:49;1.50;;;1.40;;
10246;SDS011;5168;47.854;7.944;2022-11-12T00:27:15;1.60;;;1.50;;
10246;SDS011;5168;47.854;7.944;2022-11-12T00:29:41;1.70;;;1.60;;
10246;SDS011;5168;47.854;7.944;2022-11-12T00:32:07;1.60;;;1.50;;
10246;SDS011;5168;47.854;7.944;2022-11-12T00:34:33;1.47;;;1.37;;
10246;SDS011;5168;47.854;7.944;2022-11-12T00:36:59;1.40;;;1.30;;
10246;SDS011;5168;47.854;7.944;2022-11-12T00:39:25;1.67;;;1.57;;
10246;SDS011;5168;47.854;7.944;2022-11-12T00:41:51;1.50;;;1.40;;
10246;SDS011;5168;47.854;7.944;2022-11-12T00:44:17;1.40;;;1.30;;
10246;SDS011;5168;47.854;7.944;2022-11-12T00:46:43;1.63;;;1.53;;
10246;SDS011;5168;47.854;7.944;2022-11-12T00:49:10;1.43;;;1.33;;
10246;SDS011;5168;47.854;7.944;2022-11-12T00:51:35;1.50;;;1.40;;
10246;SDS011;5168;47.854;7.944;2022-11-12T00:54:01;1.50;;;1.40;;
10246;SDS011;5168;47.854;7.944;2022-11-12T00:56:27;1.53;;;1.43;;
10246;SDS011;5168;47.854;7.944;2022-11-12T00:58:53;1.60;;;1.50;;
10246;SDS011;5168;47.854;7.944;2022-11-12T01:01:19;1.63;;;1.53;;
10246;SDS011;5168;47.854;7.944;2022-11-12T01:03:45;1.60;;;1.50;;
10246;SDS011;5168;47.854;7.944;2022-11-12T01:06:12;1.73;;;1.50;;
10246;SDS011;5168;47.854;7.944;2022-11-12T01:08:40;1.50;;;1.40;;
10246;SDS011;5168;47.854;7.944;2022-11-12T01:11:10;1.50;;;1.40;;
10246;SDS011;5168;47.854;7.944;2022-11-12T01:13:38;1.40;;;1.30;;
10246;SDS011;5168;47.854;7.944;2022-11-12T01:16:07;1.60;;;1.50;;
10246;SDS011;5168;47.854;7.944;2022-11-12T01:18:34;1.60;;;1.50;;
10246;SDS011;5168;47.854;7.944;2022-11-12T01:21:03;1.30;;;1.20;;
10246;SDS011;5168;47.854;7.944;2022-11-12T01:23:37;1.43;;;1.33;;
10246;SDS011;5168;47.854;7.944;2022-11-12T01:26:07;1.53;;;1.43;;
10246;SDS011;5168;47.854;7.944;2022-11-12T01:28:37;1.40;;;1.30;;
10246;SDS011;5168;47.854;7.944;2022-11-12T01:31:14;1.60;;;1.50;;
10246;SDS011;5168;47.854;7.944;2022-11-12T01:33:44;1.40;;;1.30;;
10246;SDS011;5168;47.854;7.944;2022-11-12T01:36:12;1.50;;;1.40;;
10246;SDS011;5168;47.854;7.944;2022-11-12T01:38:40;2.70;;;1.60;;
10246;SDS011;5168;47.854;7.944;2022-11-12T01:41:07;1.40;;;1.30;;
10246;SDS011;5168;47.854;7.944;2022-11-12T01:43:34;1.47;;;1.37;;
10246;SDS011;5168;47.854;7.944;2022-11-12T01:46:00;1.50;;;1.40;;
10246;SDS011;5168;47.854;7.944;2022-11-12T01:48:37;1.40;;;1.30;;
10246;SDS011;5168;47.854;7.944;2022-11-12T01:51:08;1.50;;;1.40;;
10246;SDS011;5168;47.854;7.944;2022-11-12T01:53:38;1.43;;;1.33;;
10246;SDS011;5168;47.854;7.944;2022-11-12T01:56:08;1.57;;;1.47;;
10246;SDS011;5168;47.854;7.944;2022-11-12T01:58:34;2.00;;;1.73;;
10246;SDS011;5168;47.854;7.944;2022-11-12T02:01:02;1.50;;;1.40;;
10246;SDS011;5168;47.854;7.944;2022-11-12T02:03:28;1.40;;;1.30;;
10246;SDS011;5168;47.854;7.944;2022-11-12T02:05:55;1.30;;;1.20;;
10246;SDS011;5168;47.854;7.944;2022-11-12T02:08:30;1.47;;;1.37;;
10246;SDS011;5168;47.854;7.944;2022-11-12T02:10:57;1.50;;;1.40;;
10246;SDS011;5168;47.854;7.944;2022-11-12T02:13:23;1.40;;;1.20;;
10246;SDS011;5168;47.854;7.944;2022-11-12T02:16:08;1.40;;;1.30;;
10246;SDS011;5168;47.854;7.944;2022-11-12T02:18:34;4.00;;;1.30;;
10246;SDS011;5168;47.854;7.944;2022-11-12T02:21:02;1.37;;;1.27;;
10246;SDS011;5168;47.854;7.944;2022-11-12T02:23:31;1.30;;;1.20;;
10246;SDS011;5168;47.854;7.944;2022-11-12T02:26:00;1.30;;;1.20;;
10246;SDS011;5168;47.854;7.944;2022-11-12T02:28:26;1.53;;;1.43;;
10246;SDS011;5168;47.854;7.944;2022-11-12T02:30:54;1.30;;;1.20;;
10246;SDS011;5168;47.854;7.944;2022-11-12T02:33:20;1.43;;;1.33;;
10246;SDS011;5168;47.854;7.944;2022-11-12T02:35:46;1.30;;;1.20;;
10246;SDS011;5168;47.854;7.944;2022-11-12T02:38:12;1.47;;;1.37;;
10246;SDS011;5168;47.854;7.944;2022-11-12T02:40:38;1.77;;;1.40;;
10246;SDS011;5168;47.854;7.944;2022-11-12T02:43:04;1.40;;;1.30;;
10246;SDS011;5168;47.854;7.944;2022-11-12T02:45:30;1.50;;;1.40;;
10246;SDS011;5168;47.854;7.944;2022-11-12T02:47:56;1.60;;;1.50;;
10246;SDS011;5168;47.854;7.944;2022-11-12T02:50:22;1.67;;;1.47;;
10246;SDS011;5168;47.854;7.944;2022-11-12T02:52:48;1.40;;;1.30;;
10246;SDS011;5168;47.854;7.944;2022-11-12T02:55:14;1.50;;;1.40;;
10246;SDS011;5168;47.854;7.944;2022-11-12T02:57:40;1.40;;;1.30;;
10246;SDS011;5168;47.854;7.944;2022-11-12T03:00:08;1.60;;;1.50;;
10246;SDS011;5168;47.854;7.944;2022-11-12T03:02:35;1.70;;;1.60;;
10246;SDS011;5168;47.854;7.944;2022-11-12T03:05:08;1.40;;;1.30;;
10246;SDS011;5168;47.854;7.944;2022-11-12T03:07:35;1.50;;;1.40;;
10246;SDS011;5168;47.854;7.944;2022-11-12T03:10:01;1.50;;;1.40;;
10246;SDS011;5168;47.854;7.944;2022-11-12T03:12:28;1.50;;;1.40;;
10246;SDS011;5168;47.854;7.944;2022-11-12T03:14:55;1.60;;;1.50;;
10246;SDS011;5168;47.854;7.944;2022-11-12T03:17:21;1.40;;;1.30;;
10246;SDS011;5168;47.854;7.944;2022-11-12T03:19:46;1.73;;;1.47;;
10246;SDS011;5168;47.854;7.944;2022-11-12T03:22:12;1.50;;;1.40;;
10246;SDS011;5168;47.854;7.944;2022-11-12T03:24:38;1.60;;;1.50;;
10246;SDS011;5168;47.854;7.944;2022-11-12T03:27:04;1.40;;;1.30;;
10246;SDS011;5168;47.854;7.944;2022-11-12T03:29:29;1.50;;;1.40;;
10246;SDS011;5168;47.854;7.944;2022-11-12T03:31:55;1.50;;;1.40;;
10246;SDS011;5168;47.854;7.944;2022-11-12T03:34:21;1.50;;;1.40;;
10246;SDS011;5168;47.854;7.944;2022-11-12T03:36:47;1.50;;;1.40;;
10246;SDS011;5168;47.854;7.944;2022-11-12T03:39:12;1.50;;;1.40;;
10246;SDS011;5168;47.854;7.944;2022-11-12T03:41:38;1.20;;;1.10;;
10246;SDS011;5168;47.854;7.944;2022-11-12T03:44:04;1.40;;;1.30;;
10246;SDS011;5168;47.854;7.944;2022-11-12T03:46:30;1.40;;;1.30;;
10246;SDS011;5168;47.854;7.944;2022-11-12T03:48:56;1.50;;;1.40;;
10246;SDS011;5168;47.854;7.944;2022-11-12T03:51:23;1.53;;;1.43;;
10246;SDS011;5168;47.854;7.944;2022-11-12T03:53:49;1.50;;;1.40;;
10246;SDS011;5168;47.854;7.944;2022-11-12T03:56:15;1.23;;;1.13;;
10246;SDS011;5168;47.854;7.944;2022-11-12T03:58:41;1.40;;;1.30;;
10246;SDS011;5168;47.854;7.944;2022-11-12T04:01:07;1.30;;;1.20;;
10246;SDS011;5168;47.854;7.944;2022-11-12T04:03:33;1.50;;;1.40;;
10246;SDS011;5168;47.854;7.944;2022-11-12T04:05:59;1.27;;;1.20;;
10246;SDS011;5168;47.854;7.944;2022-11-12T04:08:43;1.40;;;1.30;;
10246;SDS011;5168;47.854;7.944;2022-11-12T04:11:10;1.40;;;1.30;;
10246;SDS011;5168;47.854;7.944;2022-11-12T04:13:41;1.30;;;1.20;;
10246;SDS011;5168;47.854;7.944;2022-11-12T04:18:54;1.40;;;1.30;;
10246;SDS011;5168;47.854;7.944;2022-11-12T04:24:34;1.50;;;1.40;;
10246;SDS011;5168;47.854;7.944;2022-11-12T04:27:27;1.47;;;1.37;;
10246;SDS011;5168;47.854;7.944;2022-11-12T04:29:57;1.50;;;1.40;;
10246;SDS011;5168;47.854;7.944;2022-11-12T04:32:52;1.40;;;1.30;;
10246;SDS011;5168;47.854;7.944;2022-11-12T04:35:19;1.30;;;1.23;;
10246;SDS011;5168;47.854;7.944;2022-11-12T04:37:46;1.50;;;1.40;;
10246;SDS011;5168;47.854;7.944;2022-11-12T04:42:57;1.53;;;1.43;;
10246;SDS011;5168;47.854;7.944;2022-11-12T04:45:42;1.50;;;1.40;;
10246;SDS011;5168;47.854;7.944;2022-11-12T04:48:08;1.40;;;1.30;;
10246;SDS011;5168;47.854;7.944;2022-11-12T04:50:34;1.40;;;1.30;;
10246;SDS011;5168;47.854;7.944;2022-11-12T04:53:00;1.33;;;1.23;;
10246;SDS011;5168;47.854;7.944;2022-11-12T04:55:26;1.33;;;1.23;;
10246;SDS011;5168;47.854;7.944;2022-11-12T04:57:52;1.50;;;1.40;;
10246;SDS011;5168;47.854;7.944;2022-11-12T05:00:18;1.40;;;1.30;;
10246;SDS011;5168;47.854;7.944;2022-11-12T05:02:44;1.43;;;1.33;;
10246;SDS011;5168;47.854;7.944;2022-11-12T05:05:10;1.60;;;1.50;;
10246;SDS011;5168;47.854;7.944;2022-11-12T05:07:35;1.40;;;1.30;;
10246;SDS011;5168;47.854;7.944;2022-11-12T05:10:01;1.57;;;1.47;;
10246;SDS011;5168;47.854;7.944;2022-11-12T05:12:27;1.50;;;1.40;;
10246;SDS011;5168;47.854;7.944;2022-11-12T05:14:53;1.60;;;1.50;;
10246;SDS011;5168;47.854;7.944;2022-11-12T05:17:19;1.40;;;1.30;;
10246;SDS011;5168;47.854;7.944;2022-11-12T05:19:45;1.50;;;1.40;;
10246;SDS011;5168;47.854;7.944;2022-11-12T05:22:11;1.43;;;1.33;;
10246;SDS011;5168;47.854;7.944;2022-11-12T05:24:38;1.53;;;1.43;;
10246;SDS011;5168;47.854;7.944;2022-11-12T05:27:07;1.67;;;1.37;;
10246;SDS011;5168;47.854;7.944;2022-11-12T05:29:34;1.27;;;1.20;;
10246;SDS011;5168;47.854;7.944;2022-11-12T05:32:00;1.30;;;1.20;;
10246;SDS011;5168;47.854;7.944;2022-11-12T05:34:26;1.40;;;1.30;;
10246;SDS011;5168;47.854;7.944;2022-11-12T05:36:52;1.50;;;1.40;;
10246;SDS011;5168;47.854;7.944;2022-11-12T05:39:18;1.47;;;1.37;;
10246;SDS011;5168;47.854;7.944;2022-11-12T05:41:44;1.03;;;1.03;;
10246;SDS011;5168;47.854;7.944;2022-11-12T05:44:10;1.40;;;1.30;;
10246;SDS011;5168;47.854;7.944;2022-11-12T05:46:36;1.40;;;1.30;;
10246;SDS011;5168;47.854;7.944;2022-11-12T05:49:02;1.20;;;1.17;;
10246;SDS011;5168;47.854;7.944;2022-11-12T05:51:28;1.17;;;1.13;;
10246;SDS011;5168;47.854;7.944;2022-11-12T05:53:54;1.37;;;1.27;;
10246;SDS011;5168;47.854;7.944;2022-11-12T05:56:20;1.20;;;1.20;;
10246;SDS011;5168;47.854;7.944;2022-11-12T05:58:46;1.40;;;1.30;;
10246;SDS011;5168;47.854;7.944;2022-11-12T06:01:12;1.50;;;1.40;;
10246;SDS011;5168;47.854;7.944;2022-11-12T06:03:38;1.30;;;1.20;;
10246;SDS011;5168;47.854;7.944;2022-11-12T06:06:04;1.43;;;1.33;;
10246;SDS011;5168;47.854;7.944;2022-11-12T06:08:30;1.50;;;1.40;;
10246;SDS011;5168;47.854;7.944;2022-11-12T06:10:56;1.70;;;1.60;;
10246;SDS011;5168;47.854;7.944;2022-11-12T06:13:22;1.50;;;1.40;;
10246;SDS011;5168;47.854;7.944;2022-11-12T06:15:49;1.40;;;1.30;;
10246;SDS011;5168;47.854;7.944;2022-11-12T06:18:16;1.50;;;1.40;;
10246;SDS011;5168;47.854;7.944;2022-11-12T06:20:41;1.63;;;1.53;;
10246;SDS011;5168;47.854;7.944;2022-11-12T06:23:07;1.43;;;1.33;;
10246;SDS011;5168;47.854;7.944;2022-11-12T06:25:33;1.40;;;1.30;;
10246;SDS011;5168;47.854;7.944;2022-11-12T06:27:59;1.50;;;1.40;;
10246;SDS011;5168;47.854;7.944;2022-11-12T06:30:25;1.60;;;1.50;;
10246;SDS011;5168;47.854;7.944;2022-11-12T06:32:51;1.33;;;1.23;;
10246;SDS011;5168;47.854;7.944;2022-11-12T06:35:18;1.40;;;1.30;;
10246;SDS011;5168;47.854;7.944;2022-11-12T06:37:45;1.30;;;1.20;;
10246;SDS011;5168;47.854;7.944;2022-11-12T06:40:11;1.50;;;1.40;;
10246;SDS011;5168;47.854;7.944;2022-11-12T06:42:37;1.60;;;1.50;;
10246;SDS011;5168;47.854;7.944;2022-11-12T06:45:03;1.40;;;1.30;;
10246;SDS011;5168;47.854;7.944;2022-11-12T06:47:29;1.60;;;1.50;;
10246;SDS011;5168;47.854;7.944;2022-11-12T06:49:55;1.30;;;1.20;;
10246;SDS011;5168;47.854;7.944;2022-11-12T06:52:21;1.40;;;1.30;;
10246;SDS011;5168;47.854;7.944;2022-11-12T06:54:47;1.40;;;1.30;;
10246;SDS011;5168;47.854;7.944;2022-11-12T06:57:13;1.43;;;1.33;;
10246;SDS011;5168;47.854;7.944;2022-11-12T06:59:39;1.40;;;1.30;;
10246;SDS011;5168;47.854;7.944;2022-11-12T07:02:05;1.40;;;1.30;;
10246;SDS011;5168;47.854;7.944;2022-11-12T07:04:31;1.60;;;1.50;;
10246;SDS011;5168;47.854;7.944;2022-11-12T07:06:57;1.40;;;1.30;;
10246;SDS011;5168;47.854;7.944;2022-11-12T07:09:23;1.40;;;1.30;;
10246;SDS011;5168;47.854;7.944;2022-11-12T07:11:49;1.40;;;1.30;;
10246;SDS011;5168;47.854;7.944;2022-11-12T07:14:15;1.50;;;1.40;;
10246;SDS011;5168;47.854;7.944;2022-11-12T07:16:41;1.40;;;1.30;;
10246;SDS011;5168;47.854;7.944;2022-11-12T07:19:07;1.40;;;1.30;;
10246;SDS011;5168;47.854;7.944;2022-11-12T07:21:33;1.40;;;1.30;;
10246;SDS011;5168;47.854;7.944;2022-11-12T07:23:58;1.40;;;1.30;;
10246;SDS011;5168;47.854;7.944;2022-11-12T07:26:25;1.30;;;1.20;;
10246;SDS011;5168;47.854;7.944;2022-11-12T07:28:53;1.23;;;1.20;;
10246;SDS011;5168;47.854;7.944;2022-11-12T07:31:22;1.30;;;1.20;;
10246;SDS011;5168;47.854;7.944;2022-11-12T07:33:49;1.37;;;1.27;;
10246;SDS011;5168;47.854;7.944;2022-11-12T07:36:16;1.40;;;1.30;;
10246;SDS011;5168;47.854;7.944;2022-11-12T07:38:43;1.40;;;1.30;;
10246;SDS011;5168;47.854;7.944;2022-11-12T07:41:13;1.47;;;1.37;;
10246;SDS011;5168;47.854;7.944;2022-11-12T07:43:45;1.50;;;1.40;;
10246;SDS011;5168;47.854;7.944;2022-11-12T07:46:12;1.40;;;1.30;;
10246;SDS011;5168;47.854;7.944;2022-11-12T07:48:40;1.53;;;1.43;;
10246;SDS011;5168;47.854;7.944;2022-11-12T07:51:16;1.50;;;1.40;;
10246;SDS011;5168;47.854;7.944;2022-11-12T07:53:47;2.00;;;1.57;;
10246;SDS011;5168;47.854;7.944;2022-11-12T07:56:15;1.43;;;1.33;;
10246;SDS011;5168;47.854;7.944;2022-11-12T07:58:42;1.50;;;1.40;;
10246;SDS011;5168;47.854;7.944;2022-11-12T08:03:51;1.40;;;1.30;;
10246;SDS011;5168;47.854;7.944;2022-11-12T08:06:17;1.43;;;1.33;;
10246;SDS011;5168;47.854;7.944;2022-11-12T08:08:43;1.50;;;1.40;;
10246;SDS011;5168;47.854;7.944;2022-11-12T08:11:09;1.50;;;1.40;;
10246;SDS011;5168;47.854;7.944;2022-11-12T08:13:35;1.83;;;1.50;;
10246;SDS011;5168;47.854;7.944;2022-11-12T08:16:01;1.70;;;1.60;;
10246;SDS011;5168;47.854;7.944;2022-11-12T08:18:27;1.60;;;1.50;;
10246;SDS011;5168;47.854;7.944;2022-11-12T08:20:59;1.60;;;1.50;;
10246;SDS011;5168;47.854;7.944;2022-11-12T08:23:26;1.50;;;1.40;;
10246;SDS011;5168;47.854;7.944;2022-11-12T08:25:56;1.60;;;1.50;;
10246;SDS011;5168;47.854;7.944;2022-11-12T08:28:25;2.47;;;1.53;;
10246;SDS011;5168;47.854;7.944;2022-11-12T08:30:52;1.40;;;1.30;;
10246;SDS011;5168;47.854;7.944;2022-11-12T08:33:18;1.33;;;1.23;;
10246;SDS011;5168;47.854;7.944;2022-11-12T08:35:44;1.50;;;1.40;;
10246;SDS011;5168;47.854;7.944;2022-11-12T08:38:10;1.40;;;1.30;;
10246;SDS011;5168;47.854;7.944;2022-11-12T08:40:38;1.20;;;1.20;;
10246;SDS011;5168;47.854;7.944;2022-11-12T08:43:05;1.40;;;1.30;;
10246;SDS011;5168;47.854;7.944;2022-11-12T08:45:33;1.50;;;1.40;;
10246;SDS011;5168;47.854;7.944;2022-11-12T08:48:01;1.30;;;1.20;;
10246;SDS011;5168;47.854;7.944;2022-11-12T08:50:28;1.40;;;1.30;;
10246;SDS011;5168;47.854;7.944;2022-11-12T08:53:00;1.30;;;1.20;;
10246;SDS011;5168;47.854;7.944;2022-11-12T08:55:27;1.40;;;1.30;;
10246;SDS011;5168;47.854;7.944;2022-11-12T08:57:53;1.20;;;1.10;;
10246;SDS011;5168;47.854;7.944;2022-11-12T09:00:20;1.20;;;1.10;;
10246;SDS011;5168;47.854;7.944;2022-11-12T09:02:45;1.10;;;1.10;;
10246;SDS011;5168;47.854;7.944;2022-11-12T09:05:11;1.20;;;1.10;;
10246;SDS011;5168;47.854;7.944;2022-11-12T09:07:37;1.13;;;1.03;;
10246;SDS011;5168;47.854;7.944;2022-11-12T09:10:04;1.30;;;1.20;;
10246;SDS011;5168;47.854;7.944;2022-11-12T09:12:30;1.30;;;1.20;;
10246;SDS011;5168;47.854;7.944;2022-11-12T09:14:56;1.40;;;1.30;;
10246;SDS011;5168;47.854;7.944;2022-11-12T09:17:22;1.30;;;1.20;;
10246;SDS011;5168;47.854;7.944;2022-11-12T09:19:47;1.43;;;1.30;;
10246;SDS011;5168;47.854;7.944;2022-11-12T09:22:13;1.33;;;1.23;;
10246;SDS011;5168;47.854;7.944;2022-11-12T09:24:39;1.00;;;1.00;;
10246;SDS011;5168;47.854;7.944;2022-11-12T09:27:05;1.60;;;1.10;;
10246;SDS011;5168;47.854;7.944;2022-11-12T09:29:31;2.00;;;1.80;;
10246;SDS011;5168;47.854;7.944;2022-11-12T09:31:57;1.97;;;1.80;;
10246;SDS011;5168;47.854;7.944;2022-11-12T09:34:23;2.10;;;1.90;;
10246;SDS011;5168;47.854;7.944;2022-11-12T09:36:49;1.67;;;1.57;;
10246;SDS011;5168;47.854;7.944;2022-11-12T09:39:15;1.37;;;1.27;;
10246;SDS011;5168;47.854;7.944;2022-11-12T09:41:41;1.70;;;1.50;;
10246;SDS011;5168;47.854;7.944;2022-11-12T09:44:12;1.73;;;1.63;;
10246;SDS011;5168;47.854;7.944;2022-11-12T09:46:54;1.80;;;1.70;;
10246;SDS011;5168;47.854;7.944;2022-11-12T09:49:27;2.03;;;1.83;;
10246;SDS011;5168;47.854;7.944;2022-11-12T09:52:15;6.53;;;5.20;;
10246;SDS011;5168;47.854;7.944;2022-11-12T09:54:49;6.20;;;4.80;;
10246;SDS011;5168;47.854;7.944;2022-11-12T09:57:21;5.90;;;4.50;;
10246;SDS011;5168;47.854;7.944;2022-11-12T09:59:47;4.60;;;3.70;;
10246;SDS011;5168;47.854;7.944;2022-11-12T10:02:34;4.60;;;3.40;;
10246;SDS011;5168;47.854;7.944;2022-11-12T10:05:16;3.43;;;2.90;;
10246;SDS011;5168;47.854;7.944;2022-11-12T10:10:47;1.40;;;1.30;;
10246;SDS011;5168;47.854;7.944;2022-11-12T10:15:47;1.27;;;1.17;;
10246;SDS011;5168;47.854;7.944;2022-11-12T10:21:46;1.40;;;1.10;;
10246;SDS011;5168;47.854;7.944;2022-11-12T10:24:21;2.13;;;1.20;;
10246;SDS011;5168;47.854;7.944;2022-11-12T10:26:48;1.27;;;1.10;;
10246;SDS011;5168;47.854;7.944;2022-11-12T10:31:56;1.90;;;1.60;;
10246;SDS011;5168;47.854;7.944;2022-11-12T10:34:24;1.30;;;1.20;;
10246;SDS011;5168;47.854;7.944;2022-11-12T10:36:52;1.67;;;1.23;;
10246;SDS011;5168;47.854;7.944;2022-11-12T10:42:07;1.40;;;1.30;;
10246;SDS011;5168;47.854;7.944;2022-11-12T10:44:34;1.50;;;1.30;;
10246;SDS011;5168;47.854;7.944;2022-11-12T10:50:05;1.50;;;1.40;;
10246;SDS011;5168;47.854;7.944;2022-11-12T10:53:00;1.90;;;1.57;;
10246;SDS011;5168;47.854;7.944;2022-11-12T10:55:28;1.87;;;1.40;;
10246;SDS011;5168;47.854;7.944;2022-11-12T10:58:02;1.80;;;1.60;;
10246;SDS011;5168;47.854;7.944;2022-11-12T11:00:34;1.43;;;1.20;;
10246;SDS011;5168;47.854;7.944;2022-11-12T11:03:34;1.30;;;1.20;;
10246;SDS011;5168;47.854;7.944;2022-11-12T11:08:43;1.23;;;0.97;;
10246;SDS011;5168;47.854;7.944;2022-11-12T11:13:43;2.33;;;1.80;;
10246;SDS011;5168;47.854;7.944;2022-11-12T11:16:11;2.23;;;1.73;;
10246;SDS011;5168;47.854;7.944;2022-11-12T11:18:39;2.50;;;2.20;;
10246;SDS011;5168;47.854;7.944;2022-11-12T11:29:59;1.33;;;1.23;;
10246;SDS011;5168;47.854;7.944;2022-11-12T11:38:15;1.00;;;1.00;;
10246;SDS011;5168;47.854;7.944;2022-11-12T11:44:05;0.90;;;0.90;;
10246;SDS011;5168;47.854;7.944;2022-11-12T11:46:51;2.50;;;1.20;;
10246;SDS011;5168;47.854;7.944;2022-11-12T11:52:37;1.93;;;1.30;;
10246;SDS011;5168;47.854;7.944;2022-11-12T11:55:19;1.20;;;1.10;;
10246;SDS011;5168;47.854;7.944;2022-11-12T12:00:23;3.23;;;1.27;;
10246;SDS011;5168;47.854;7.944;2022-11-12T12:08:03;1.50;;;1.30;;
10246;SDS011;5168;47.854;7.944;2022-11-12T12:21:23;1.83;;;1.03;;
10246;SDS011;5168;47.854;7.944;2022-11-12T12:23:52;1.70;;;1.30;;
10246;SDS011;5168;47.854;7.944;2022-11-12T12:31:47;2.17;;;1.40;;
10246;SDS011;5168;47.854;7.944;2022-11-12T12:34:25;1.50;;;1.10;;
10246;SDS011;5168;47.854;7.944;2022-11-12T12:37:01;1.20;;;1.10;;
10246;SDS011;5168;47.854;7.944;2022-11-12T12:39:39;1.30;;;1.20;;
10246;SDS011;5168;47.854;7.944;2022-11-12T12:42:18;2.20;;;1.30;;
10246;SDS011;5168;47.854;7.944;2022-11-12T12:44:58;1.40;;;1.30;;
10246;SDS011;5168;47.854;7.944;2022-11-12T12:47:30;1.60;;;1.40;;
10246;SDS011;5168;47.854;7.944;2022-11-12T12:50:02;1.40;;;1.30;;
10246;SDS011;5168;47.854;7.944;2022-11-12T12:55:42;1.47;;;1.30;;
10246;SDS011;5168;47.854;7.944;2022-11-12T13:06:20;1.60;;;1.10;;
10246;SDS011;5168;47.854;7.944;2022-11-12T13:09:32;1.30;;;1.20;;
10246;SDS011;5168;47.854;7.944;2022-11-12T13:19:26;1.20;;;1.10;;
10246;SDS011;5168;47.854;7.944;2022-11-12T13:30:54;1.37;;;1.27;;
10246;SDS011;5168;47.854;7.944;2022-11-12T13:32:55;1.30;;;1.20;;
10246;SDS011;5168;47.854;7.944;2022-11-12T13:37:52;1.93;;;1.40;;
10246;SDS011;5168;47.854;7.944;2022-11-12T13:48:41;1.70;;;1.50;;
10246;SDS011;5168;47.854;7.944;2022-11-12T13:53:38;2.53;;;1.40;;
10246;SDS011;5168;47.854;7.944;2022-11-12T13:56:04;1.47;;;1.37;;
10246;SDS011;5168;47.854;7.944;2022-11-12T13:58:34;1.70;;;1.60;;
10246;SDS011;5168;47.854;7.944;2022-11-12T14:01:00;2.17;;;1.90;;
10246;SDS011;5168;47.854;7.944;2022-11-12T14:03:30;3.17;;;1.70;;
10246;SDS011;5168;47.854;7.944;2022-11-12T14:06:14;1.77;;;1.67;;
10246;SDS011;5168;47.854;7.944;2022-11-12T14:08:55;2.30;;;2.10;;
10246;SDS011;5168;47.854;7.944;2022-11-12T14:14:41;2.40;;;2.20;;
10246;SDS011;5168;47.854;7.944;2022-11-12T14:20:32;2.00;;;1.80;;
10246;SDS011;5168;47.854;7.944;2022-11-12T14:23:14;2.77;;;2.43;;
10246;SDS011;5168;47.854;7.944;2022-11-12T14:25:51;3.77;;;2.60;;
10246;SDS011;5168;47.854;7.944;2022-11-12T14:28:23;3.00;;;2.50;;
10246;SDS011;5168;47.854;7.944;2022-11-12T14:30:48;4.53;;;2.60;;
10246;SDS011;5168;47.854;7.944;2022-11-12T14:33:18;2.57;;;2.17;;
10246;SDS011;5168;47.854;7.944;2022-11-12T14:35:46;2.43;;;2.10;;
10246;SDS011;5168;47.854;7.944;2022-11-12T14:40:48;2.30;;;2.10;;
10246;SDS011;5168;47.854;7.944;2022-11-12T14:43:24;2.70;;;2.10;;
10246;SDS011;5168;47.854;7.944;2022-11-12T14:45:57;2.20;;;2.00;;
10246;SDS011;5168;47.854;7.944;2022-11-12T14:48:24;4.03;;;2.90;;
10246;SDS011;5168;47.854;7.944;2022-11-12T14:50:54;4.37;;;3.13;;
10246;SDS011;5168;47.854;7.944;2022-11-12T14:53:40;3.30;;;2.73;;
10246;SDS011;5168;47.854;7.944;2022-11-12T14:56:13;3.57;;;2.57;;
10246;SDS011;5168;47.854;7.944;2022-11-12T14:58:47;2.80;;;2.40;;
10246;SDS011;5168;47.854;7.944;2022-11-12T15:03:43;3.30;;;2.70;;
10246;SDS011;5168;47.854;7.944;2022-11-12T15:06:09;2.80;;;2.60;;
10246;SDS011;5168;47.854;7.944;2022-11-12T15:08:37;2.53;;;2.33;;
10246;SDS011;5168;47.854;7.944;2022-11-12T15:13:46;2.50;;;2.30;;
10246;SDS011;5168;47.854;7.944;2022-11-12T15:16:22;3.20;;;2.70;;
10246;SDS011;5168;47.854;7.944;2022-11-12T15:18:58;3.33;;;3.03;;
10246;SDS011;5168;47.854;7.944;2022-11-12T15:21:42;4.10;;;2.80;;
10246;SDS011;5168;47.854;7.944;2022-11-12T15:26:43;3.90;;;2.50;;
10246;SDS011;5168;47.854;7.944;2022-11-12T15:31:46;9.90;;;6.10;;
10246;SDS011;5168;47.854;7.944;2022-11-12T15:37:05;18.17;;;12.40;;
10246;SDS011;5168;47.854;7.944;2022-11-12T15:39:40;14.13;;;10.63;;
10246;SDS011;5168;47.854;7.944;2022-11-12T15:42:21;11.77;;;8.50;;
10246;SDS011;5168;47.854;7.944;2022-11-12T15:44:58;7.13;;;5.50;;
10246;SDS011;5168;47.854;7.944;2022-11-12T15:47:25;9.23;;;5.43;;
10246;SDS011;5168;47.854;7.944;2022-11-12T15:49:52;8.67;;;5.47;;
10246;SDS011;5168;47.854;7.944;2022-11-12T15:52:19;9.27;;;6.23;;
10246;SDS011;5168;47.854;7.944;2022-11-12T15:54:45;7.63;;;5.60;;
10246;SDS011;5168;47.854;7.944;2022-11-12T15:57:15;12.07;;;6.20;;
10246;SDS011;5168;47.854;7.944;2022-11-12T15:59:43;7.80;;;5.23;;
10246;SDS011;5168;47.854;7.944;2022-11-12T16:02:13;6.83;;;4.83;;
10246;SDS011;5168;47.854;7.944;2022-11-12T16:04:39;6.20;;;4.87;;
10246;SDS011;5168;47.854;7.944;2022-11-12T16:07:05;5.83;;;4.60;;
10246;SDS011;5168;47.854;7.944;2022-11-12T16:09:31;5.83;;;4.60;;
10246;SDS011;5168;47.854;7.944;2022-11-12T16:11:58;5.30;;;4.77;;
10246;SDS011;5168;47.854;7.944;2022-11-12T16:14:24;5.33;;;4.10;;
10246;SDS011;5168;47.854;7.944;2022-11-12T16:16:51;4.80;;;4.00;;
10246;SDS011;5168;47.854;7.944;2022-11-12T16:19:17;3.93;;;3.40;;
10246;SDS011;5168;47.854;7.944;2022-11-12T16:21:43;4.20;;;3.20;;
10246;SDS011;5168;47.854;7.944;2022-11-12T16:24:09;3.60;;;3.13;;
10246;SDS011;5168;47.854;7.944;2022-11-12T16:26:35;5.07;;;3.00;;
10246;SDS011;5168;47.854;7.944;2022-11-12T16:29:02;3.40;;;3.00;;
10246;SDS011;5168;47.854;7.944;2022-11-12T16:31:35;5.07;;;3.90;;
10246;SDS011;5168;47.854;7.944;2022-11-12T16:34:01;5.50;;;4.10;;
10246;SDS011;5168;47.854;7.944;2022-11-12T16:36:26;4.70;;;4.03;;
10246;SDS011;5168;47.854;7.944;2022-11-12T16:38:53;4.40;;;3.63;;
10246;SDS011;5168;47.854;7.944;2022-11-12T16:41:18;5.33;;;3.87;;
10246;SDS011;5168;47.854;7.944;2022-11-12T16:43:44;5.03;;;3.83;;
10246;SDS011;5168;47.854;7.944;2022-11-12T16:46:16;7.50;;;4.37;;
10246;SDS011;5168;47.854;7.944;2022-11-12T16:48:50;7.90;;;4.77;;
10246;SDS011;5168;47.854;7.944;2022-11-12T16:51:16;5.23;;;3.90;;
10246;SDS011;5168;47.854;7.944;2022-11-12T16:53:43;3.33;;;2.90;;
10246;SDS011;5168;47.854;7.944;2022-11-12T16:56:10;2.50;;;2.30;;
10246;SDS011;5168;47.854;7.944;2022-11-12T16:58:37;2.63;;;2.43;;
10246;SDS011;5168;47.854;7.944;2022-11-12T17:01:05;4.93;;;4.43;;
10246;SDS011;5168;47.854;7.944;2022-11-12T17:03:31;9.67;;;7.90;;
10246;SDS011;5168;47.854;7.944;2022-11-12T17:05:56;12.70;;;10.73;;
10246;SDS011;5168;47.854;7.944;2022-11-12T17:08:23;11.80;;;9.60;;
10246;SDS011;5168;47.854;7.944;2022-11-12T17:10:50;9.37;;;7.83;;
10246;SDS011;5168;47.854;7.944;2022-11-12T17:13:16;8.70;;;7.67;;
10246;SDS011;5168;47.854;7.944;2022-11-12T17:15:42;10.37;;;7.80;;
10246;SDS011;5168;47.854;7.944;2022-11-12T17:18:08;11.20;;;8.03;;
10246;SDS011;5168;47.854;7.944;2022-11-12T17:20:34;15.03;;;9.60;;
10246;SDS011;5168;47.854;7.944;2022-11-12T17:23:00;8.13;;;5.57;;
10246;SDS011;5168;47.854;7.944;2022-11-12T17:25:26;11.87;;;8.57;;
10246;SDS011;5168;47.854;7.944;2022-11-12T17:27:52;9.50;;;7.30;;
10246;SDS011;5168;47.854;7.944;2022-11-12T17:30:18;8.67;;;6.33;;